Blackpool, United Kingdom

5:10 AM BST on August 26, 2016 (GMT +0100)
IENGLAND202 | | Change Station

Elev 30 ft 53.78 °N, 3.01 °W | Updated 2 seconds ago

Clear
Clear
60.8 °F
Feels Like 60.8 °F
N
1.8
Wind Variable Wind from West
Gusts 2.5 mph

Today
High -- | Low -- °F
--% Chance of Precip.
Yesterday
High -- | Low -- °F
Precip. -- in
Pressure 29.95 in
Visibility -9999.0 miles
Clouds
Dew Point 58 °F
Humidity 91%
Rainfall 0.00 in
Snow Depth Not available.
6:10 AM 8:15 PM
Last Quarter, 39% visible
METAR EGGP 260350Z 27007KT CAVOK 14/09 Q1014
Pressure 29.95 in
Visibility -9999.0 miles
Clouds
Dew Point 58 °F
Humidity 91%
Rainfall 0.00 in
Snow Depth Not available.
6:10 AM 8:15 PM
Last Quarter, 39% visible
METAR EGGP 260350Z 27007KT CAVOK 14/09 Q1014

10-Day Weather Forecast

×

Almanac

Astronomy

Aug. 26, 2016 Rise Set
Actual Time
Civil Twilight
Nautical Twilight
Astronomical Twilight
Moon
Length of Visible Light
Length of Day
Tomorrow will be .
, % of the Moon is Illuminated

Today's Extremes

Country Highs Country Lows

Community

WunderPhotos

Upload Photos

1,935,057 photos uploaded!

WunderBlog® & News

Nearby

Air Quality

  Air Quality AQ Index Pollutant
Not available.

Snow Depth

Station Depth Elevation

Earthquake Activity

City Distance Mag. Time & Date
Minimum magnitude displayed is 2.5.

Coastal Water Temperatures

Place Temperature

Stations

Nearby Weather Stations

Station Location Temp. Windchill Dew Point Humidity Wind Precip. Elev Updated Type